createdAt,value
2023-04-03T00:00:58.820Z,4.29
2023-04-03T00:01:56.613Z,4.29
2023-04-03T00:02:56.602Z,4.28
2023-04-03T00:03:56.538Z,4.28
2023-04-03T00:04:56.500Z,4.25
2023-04-03T00:05:56.469Z,4.25
2023-04-03T00:06:56.458Z,4.24
2023-04-03T00:07:56.743Z,4.22
2023-04-03T00:08:56.420Z,4.19
2023-04-03T00:09:56.447Z,4.21
2023-04-03T00:10:56.425Z,4.19
2023-04-03T00:11:56.431Z,4.19
2023-04-03T00:12:56.379Z,4.19
2023-04-03T00:13:56.395Z,4.19
2023-04-03T00:14:56.645Z,4.15
2023-04-03T00:15:56.344Z,4.16
2023-04-03T00:16:56.416Z,4.14
2023-04-03T00:17:56.364Z,4.10
2023-04-03T00:18:56.314Z,4.08
2023-04-03T00:19:56.307Z,4.07
2023-04-03T00:20:56.304Z,4.06
2023-04-03T00:21:56.593Z,4.00
2023-04-03T00:22:56.309Z,4.00
2023-04-03T00:23:56.254Z,3.96
2023-04-03T00:24:56.260Z,3.94
2023-04-03T00:25:56.254Z,3.90
2023-04-03T00:26:56.233Z,3.90
2023-04-03T00:27:56.220Z,3.89
2023-04-03T00:28:56.547Z,3.89
2023-04-03T00:29:56.215Z,3.88
2023-04-03T00:30:56.202Z,3.86
2023-04-03T00:31:56.185Z,3.85
2023-04-03T00:32:56.196Z,3.85
2023-04-03T00:33:56.161Z,3.85
2023-04-03T00:34:56.221Z,3.85
2023-04-03T00:35:56.474Z,3.85
2023-04-03T00:36:56.326Z,3.88
2023-04-03T00:37:56.114Z,3.86
2023-04-03T00:38:56.095Z,3.86
2023-04-03T00:39:56.121Z,3.85
2023-04-03T00:40:56.176Z,3.82
2023-04-03T00:41:56.083Z,3.80
2023-04-03T00:42:56.059Z,3.76
2023-04-03T00:43:56.057Z,3.75
2023-04-03T00:44:56.039Z,3.71
2023-04-03T00:45:56.136Z,3.70
2023-04-03T00:46:56.065Z,3.67
2023-04-03T00:47:56.325Z,3.65
2023-04-03T00:48:56.012Z,3.62
2023-04-03T00:49:56.010Z,3.62
2023-04-03T00:50:55.986Z,3.60
2023-04-03T00:51:55.984Z,3.58
2023-04-03T00:52:56.012Z,3.54
2023-04-03T00:53:55.970Z,3.57
2023-04-03T00:54:55.932Z,3.53
2023-04-03T00:55:55.941Z,3.53
2023-04-03T00:56:56.032Z,3.52
2023-04-03T00:57:55.905Z,3.52
2023-04-03T00:58:55.951Z,3.50
2023-04-03T00:59:55.892Z,3.46
2023-04-03T01:00:55.867Z,3.44
2023-04-03T01:01:55.936Z,3.43
2023-04-03T01:02:55.881Z,3.43
2023-04-03T01:03:55.878Z,3.42
2023-04-03T01:04:55.857Z,3.40
2023-04-03T01:05:56.149Z,3.39
2023-04-03T01:06:55.818Z,3.34
2023-04-03T01:07:55.818Z,3.34
2023-04-03T01:08:55.786Z,3.34
2023-04-03T01:09:55.796Z,3.33
2023-04-03T01:10:56.559Z,3.28
2023-04-03T01:11:55.769Z,3.24
2023-04-03T01:12:56.042Z,3.24
2023-04-03T01:13:55.757Z,3.23
2023-04-03T01:14:55.730Z,3.21
2023-04-03T01:15:55.788Z,3.24
2023-04-03T01:16:55.776Z,3.21
2023-04-03T01:17:55.754Z,3.21
2023-04-03T01:18:55.712Z,3.20
2023-04-03T01:19:56.009Z,3.20
2023-04-03T01:20:55.734Z,3.18
2023-04-03T01:21:55.675Z,3.16
2023-04-03T01:22:55.696Z,3.16
2023-04-03T01:23:55.647Z,3.15
2023-04-03T01:24:55.644Z,3.13
2023-04-03T01:25:55.627Z,3.13
2023-04-03T01:26:55.886Z,3.12
2023-04-03T01:27:55.610Z,3.15
2023-04-03T01:28:55.622Z,3.10
2023-04-03T01:29:55.596Z,3.12
2023-04-03T01:30:55.569Z,3.10
2023-04-03T01:31:55.613Z,3.09
2023-04-03T01:32:55.644Z,3.07
2023-04-03T01:33:55.840Z,3.09
2023-04-03T01:34:55.580Z,3.06
2023-04-03T01:35:55.582Z,3.06
2023-04-03T01:36:55.511Z,3.03
2023-04-03T01:37:55.532Z,3.02
2023-04-03T01:38:55.600Z,3.00
2023-04-03T01:39:55.468Z,2.97
2023-04-03T01:40:55.819Z,2.94
2023-04-03T01:41:55.449Z,2.91
2023-04-03T01:42:55.450Z,2.89
2023-04-03T01:43:55.442Z,2.89
2023-04-03T01:44:55.436Z,2.87
2023-04-03T01:45:55.517Z,2.85
2023-04-03T01:46:55.456Z,2.85
2023-04-03T01:47:55.734Z,2.85
2023-04-03T01:48:55.378Z,2.82
2023-04-03T01:49:55.363Z,2.82
2023-04-03T01:50:55.373Z,2.81
2023-04-03T01:51:55.375Z,2.82
2023-04-03T01:52:55.377Z,2.82
2023-04-03T01:53:55.345Z,2.81
2023-04-03T01:54:55.609Z,2.79
2023-04-03T01:55:55.323Z,2.76
2023-04-03T01:56:55.318Z,2.76
2023-04-03T01:57:55.311Z,2.73
2023-04-03T01:58:55.313Z,2.74
2023-04-03T01:59:55.276Z,2.73
2023-04-03T02:00:55.259Z,2.71
2023-04-03T02:01:55.284Z,2.69
2023-04-03T02:02:55.330Z,2.70
2023-04-03T02:03:55.261Z,2.67
2023-04-03T02:04:55.248Z,2.63
2023-04-03T02:05:55.212Z,2.63
2023-04-03T02:06:55.236Z,2.61
2023-04-03T02:07:55.488Z,2.61
2023-04-03T02:08:55.163Z,2.56
2023-04-03T02:09:55.159Z,2.53
2023-04-03T02:10:55.249Z,2.52
2023-04-03T02:11:55.156Z,2.49
2023-04-03T02:12:55.169Z,2.48
2023-04-03T02:13:55.125Z,2.45
2023-04-03T02:14:55.482Z,2.46
2023-04-03T02:15:55.088Z,2.45
2023-04-03T02:16:55.180Z,2.41
2023-04-03T02:17:55.139Z,2.41
2023-04-03T02:18:55.074Z,2.40
2023-04-03T02:19:55.064Z,2.38
2023-04-03T02:20:55.046Z,2.37
2023-04-03T02:21:55.349Z,2.38
2023-04-03T02:22:55.101Z,2.35
2023-04-03T02:23:55.027Z,2.35
2023-04-03T02:24:54.993Z,2.33
2023-04-03T02:25:54.989Z,2.34
2023-04-03T02:26:54.987Z,2.34
2023-04-03T02:27:54.977Z,2.31
2023-04-03T02:28:55.316Z,2.33
2023-04-03T02:29:54.948Z,2.33
2023-04-03T02:30:54.970Z,2.31
2023-04-03T02:31:54.934Z,2.33
2023-04-03T02:32:54.992Z,2.31
2023-04-03T02:33:54.907Z,2.30
2023-04-03T02:34:54.947Z,2.28
2023-04-03T02:35:55.052Z,2.28
2023-04-03T02:36:54.884Z,2.26
2023-04-03T02:37:54.879Z,2.23
2023-04-03T02:38:54.856Z,2.22
2023-04-03T02:39:54.842Z,2.19
2023-04-03T02:40:55.196Z,2.17
2023-04-03T02:41:54.824Z,2.20
2023-04-03T02:42:54.807Z,2.19
2023-04-03T02:43:54.793Z,2.17
2023-04-03T02:44:54.784Z,2.17
2023-04-03T02:45:54.882Z,2.17
2023-04-03T02:46:54.822Z,2.16
2023-04-03T02:47:54.824Z,2.13
2023-04-03T02:48:54.761Z,2.12
2023-04-03T02:49:54.747Z,2.12
2023-04-03T02:50:54.735Z,2.10
2023-04-03T02:51:54.722Z,2.08
2023-04-03T02:52:54.756Z,2.06
2023-04-03T02:53:54.712Z,2.01
2023-04-03T02:54:54.697Z,1.99
2023-04-03T02:55:54.693Z,1.97
2023-04-03T02:56:54.736Z,1.97
2023-04-03T02:57:54.661Z,1.93
2023-04-03T02:58:54.981Z,1.91
2023-04-03T02:59:54.635Z,1.93
2023-04-03T03:00:54.635Z,1.90
2023-04-03T03:01:54.622Z,1.90
2023-04-03T03:02:54.719Z,1.89
2023-04-03T03:03:54.594Z,1.85
2023-04-03T03:04:54.697Z,1.83
2023-04-03T03:05:54.589Z,1.80
2023-04-03T03:06:54.559Z,1.82
2023-04-03T03:07:54.547Z,1.80
2023-04-03T03:08:54.557Z,1.79
2023-04-03T03:09:54.534Z,1.79
2023-04-03T03:10:54.560Z,1.76
2023-04-03T03:11:54.831Z,1.76
2023-04-03T03:12:54.496Z,1.72
2023-04-03T03:13:54.493Z,1.71
2023-04-03T03:14:54.514Z,1.71
2023-04-03T03:15:54.496Z,1.65
2023-04-03T03:16:54.528Z,1.62
2023-04-03T03:17:54.517Z,1.64
2023-04-03T03:18:54.713Z,1.61
2023-04-03T03:19:54.428Z,1.61
2023-04-03T03:20:54.412Z,1.62
2023-04-03T03:21:54.448Z,1.61
2023-04-03T03:22:54.437Z,1.60
2023-04-03T03:23:54.388Z,1.58
2023-04-03T03:24:54.370Z,1.58
2023-04-03T03:25:54.699Z,1.54
2023-04-03T03:26:54.349Z,1.51
2023-04-03T03:27:54.341Z,1.51
2023-04-03T03:28:54.378Z,1.47
2023-04-03T03:29:54.327Z,1.46
2023-04-03T03:30:54.373Z,1.46
2023-04-03T03:31:54.361Z,1.46
2023-04-03T03:32:54.344Z,1.44
2023-04-03T03:33:54.286Z,1.42
2023-04-03T03:34:54.343Z,1.42
2023-04-03T03:35:54.299Z,1.39
2023-04-03T03:36:54.256Z,1.37
2023-04-03T03:37:54.249Z,1.37
2023-04-03T03:38:54.533Z,1.37
2023-04-03T03:39:54.278Z,1.37
2023-04-03T03:40:54.265Z,1.34
2023-04-03T03:41:54.205Z,1.37
2023-04-03T03:42:54.197Z,1.33
2023-04-03T03:43:54.196Z,1.33
2023-04-03T03:44:54.165Z,1.32
2023-04-03T03:45:54.157Z,1.29
2023-04-03T03:46:54.324Z,1.29
2023-04-03T03:47:54.167Z,1.28
2023-04-03T03:48:54.141Z,1.24
2023-04-03T03:49:54.122Z,1.25
2023-04-03T03:50:54.392Z,1.22
2023-04-03T03:51:54.103Z,1.21
2023-04-03T03:52:54.139Z,1.18
2023-04-03T03:53:54.081Z,1.15
2023-04-03T03:54:54.060Z,1.14
2023-04-03T03:55:54.069Z,1.08
2023-04-03T03:56:54.094Z,1.07
2023-04-03T03:57:54.048Z,1.07
2023-04-03T03:58:54.050Z,1.03
2023-04-03T03:59:54.042Z,1.03
2023-04-03T04:00:54.020Z,1.03
2023-04-03T04:01:54.104Z,1.04
2023-04-03T04:02:55.227Z,1.01
2023-04-03T04:03:54.081Z,1.01
2023-04-03T04:04:54.032Z,0.98
2023-04-03T04:05:53.948Z,0.98
2023-04-03T04:06:53.932Z,0.98
2023-04-03T04:07:53.962Z,1.01
2023-04-03T04:08:53.922Z,1.00
2023-04-03T04:09:54.192Z,0.98
2023-04-03T04:10:53.966Z,0.98
2023-04-03T04:11:53.904Z,0.98
2023-04-03T04:12:53.926Z,0.97
2023-04-03T04:13:53.872Z,0.96
2023-04-03T04:14:53.864Z,0.97
2023-04-03T04:15:53.859Z,0.96
2023-04-03T04:16:54.172Z,0.92
2023-04-03T04:17:53.874Z,0.92
2023-04-03T04:18:53.813Z,0.89
2023-04-03T04:19:53.805Z,0.89
2023-04-03T04:20:53.800Z,0.86
2023-04-03T04:21:53.780Z,0.88
2023-04-03T04:22:53.815Z,0.88
2023-04-03T04:23:54.065Z,0.89
2023-04-03T04:24:53.822Z,0.86
2023-04-03T04:25:53.770Z,0.89
2023-04-03T04:26:53.731Z,0.86
2023-04-03T04:27:53.726Z,0.86
2023-04-03T04:28:53.757Z,0.85
2023-04-03T04:29:53.713Z,0.85
2023-04-03T04:30:53.719Z,0.83
2023-04-03T04:31:53.687Z,0.80
2023-04-03T04:32:54.523Z,0.80
2023-04-03T04:33:53.703Z,0.76
2023-04-03T04:34:53.713Z,0.76
2023-04-03T04:35:53.732Z,0.75
2023-04-03T04:36:53.988Z,0.72
2023-04-03T04:37:53.669Z,0.70
2023-04-03T04:38:53.630Z,0.70
2023-04-03T04:39:53.612Z,0.68
2023-04-03T04:40:53.631Z,0.70
2023-04-03T04:41:53.577Z,0.64
2023-04-03T04:42:53.563Z,0.62
2023-04-03T04:43:53.848Z,0.60
2023-04-03T04:44:53.559Z,0.60
2023-04-03T04:45:53.581Z,0.53
2023-04-03T04:46:53.582Z,0.57
2023-04-03T04:47:53.632Z,0.57
2023-04-03T04:48:53.525Z,0.53
2023-04-03T04:49:53.521Z,0.52
2023-04-03T04:50:53.512Z,0.49
2023-04-03T04:51:53.472Z,0.49
2023-04-03T04:52:53.520Z,0.49
2023-04-03T04:53:54.844Z,0.48
2023-04-03T04:54:53.501Z,0.49
2023-04-03T04:55:53.430Z,0.48
2023-04-03T04:56:53.726Z,0.48
2023-04-03T04:57:53.449Z,0.45
2023-04-03T04:58:53.460Z,0.49
2023-04-03T04:59:53.413Z,0.48
2023-04-03T05:00:53.400Z,0.48
2023-04-03T05:01:53.480Z,0.45
2023-04-03T05:02:53.424Z,0.45
2023-04-03T05:03:53.390Z,0.48
2023-04-03T05:04:53.533Z,0.48
2023-04-03T05:05:53.349Z,0.51
2023-04-03T05:06:53.333Z,0.49
2023-04-03T05:07:53.327Z,0.49
2023-04-03T05:08:53.602Z,0.49
2023-04-03T05:09:53.333Z,0.49
2023-04-03T05:10:55.536Z,0.46
2023-04-03T05:11:53.274Z,0.49
2023-04-03T05:12:53.268Z,0.48
2023-04-03T05:13:53.266Z,0.48
2023-04-03T05:14:53.269Z,0.48
2023-04-03T05:15:53.286Z,0.48
2023-04-03T05:16:53.291Z,0.46
2023-04-03T05:17:53.295Z,0.48
2023-04-03T05:18:53.211Z,0.48
2023-04-03T05:19:53.193Z,0.49
2023-04-03T05:20:53.499Z,0.51
2023-04-03T05:21:53.266Z,0.49
2023-04-03T05:22:53.233Z,0.51
2023-04-03T05:23:53.163Z,0.51
2023-04-03T05:24:53.145Z,0.53
2023-04-03T05:25:53.131Z,0.53
2023-04-03T05:26:53.136Z,0.57
2023-04-03T05:27:53.139Z,0.58
2023-04-03T05:28:53.187Z,0.60
2023-04-03T05:29:53.086Z,0.62
2023-04-03T05:30:53.079Z,0.71
2023-04-03T05:31:53.196Z,1.00
2023-04-03T05:32:53.153Z,1.37
2023-04-03T05:33:53.339Z,1.82
2023-04-03T05:34:53.071Z,2.20
2023-04-03T05:35:53.067Z,2.30
2023-04-03T05:36:53.038Z,2.35
2023-04-03T05:37:53.021Z,2.51
2023-04-03T05:38:52.987Z,2.70
2023-04-03T05:39:53.024Z,2.77
2023-04-03T05:40:53.382Z,2.79
2023-04-03T05:41:52.978Z,2.88
2023-04-03T05:42:52.972Z,3.12
2023-04-03T05:43:52.933Z,3.42
2023-04-03T05:44:52.936Z,3.78
2023-04-03T05:45:52.967Z,4.12
2023-04-03T05:46:52.945Z,4.34
2023-04-03T05:47:53.251Z,4.51
2023-04-03T05:48:52.896Z,5.02
2023-04-03T05:49:52.878Z,5.55
2023-04-03T05:50:53.365Z,5.56
2023-04-03T05:51:52.866Z,5.77
2023-04-03T05:52:52.915Z,5.68
2023-04-03T05:53:52.830Z,5.74
2023-04-03T05:54:53.161Z,5.60
2023-04-03T05:55:52.852Z,5.75
2023-04-03T05:56:52.816Z,5.77
2023-04-03T05:57:52.787Z,5.56
2023-04-03T05:58:52.831Z,5.52
2023-04-03T05:59:52.820Z,5.56
2023-04-03T06:00:52.783Z,5.83
2023-04-03T06:01:53.035Z,6.11
2023-04-03T06:02:52.818Z,6.13
2023-04-03T06:03:52.956Z,5.73
2023-04-03T06:04:53.084Z,5.77
2023-04-03T06:05:52.714Z,5.43
2023-04-03T06:06:52.740Z,5.16
2023-04-03T06:07:52.706Z,4.51
2023-04-03T06:08:52.679Z,4.15
2023-04-03T06:09:52.692Z,3.98
2023-04-03T06:10:52.713Z,3.67
2023-04-03T06:11:52.648Z,3.71
2023-04-03T06:12:52.669Z,3.67
2023-04-03T06:13:52.643Z,3.70
2023-04-03T06:14:52.903Z,3.61
2023-04-03T06:15:52.632Z,3.25
2023-04-03T06:16:52.694Z,3.10
2023-04-03T06:17:52.761Z,3.10
2023-04-03T06:18:52.602Z,3.05
2023-04-03T06:19:52.577Z,3.03
2023-04-03T06:20:52.545Z,3.10
2023-04-03T06:21:52.536Z,3.13
2023-04-03T06:22:52.594Z,3.24
2023-04-03T06:23:52.512Z,3.34
2023-04-03T06:24:52.538Z,3.43
2023-04-03T06:25:52.498Z,3.42
2023-04-03T06:26:52.484Z,3.54
2023-04-03T06:27:52.764Z,3.57
2023-04-03T06:28:53.471Z,3.46
2023-04-03T06:29:52.459Z,3.39
2023-04-03T06:30:52.486Z,3.39
2023-04-03T06:31:52.436Z,3.31
2023-04-03T06:32:52.453Z,3.44
2023-04-03T06:33:52.406Z,3.49
2023-04-03T06:34:52.472Z,3.36
2023-04-03T06:35:52.442Z,3.33
2023-04-03T06:36:52.385Z,3.42
2023-04-03T06:37:52.374Z,3.40
2023-04-03T06:38:52.361Z,3.36
2023-04-03T06:39:52.622Z,3.24
2023-04-03T06:40:52.382Z,3.06
2023-04-03T06:41:52.345Z,3.09
2023-04-03T06:42:52.334Z,3.07
2023-04-03T06:43:52.316Z,3.15
2023-04-03T06:44:52.343Z,3.23
2023-04-03T06:45:52.349Z,3.34
2023-04-03T06:46:52.334Z,3.42
2023-04-03T06:47:52.271Z,3.42
2023-04-03T06:48:52.257Z,3.46
2023-04-03T06:49:52.238Z,3.49
2023-04-03T06:50:52.240Z,3.42
2023-04-03T06:51:52.540Z,3.44
2023-04-03T06:52:52.250Z,3.53
2023-04-03T06:53:52.200Z,3.57
2023-04-03T06:54:52.194Z,3.68
2023-04-03T06:55:52.198Z,3.52
2023-04-03T06:56:52.294Z,3.54
2023-04-03T06:57:52.166Z,3.50
2023-04-03T06:58:52.497Z,3.58
2023-04-03T06:59:52.158Z,3.70
2023-04-03T07:00:52.158Z,3.70
2023-04-03T07:01:52.141Z,3.65
2023-04-03T07:02:52.147Z,3.71
2023-04-03T07:03:52.106Z,3.88
2023-04-03T07:04:52.223Z,4.01
2023-04-03T07:05:52.405Z,4.07
2023-04-03T07:06:52.085Z,4.22
2023-04-03T07:07:52.068Z,4.25
2023-04-03T07:08:52.285Z,4.36
2023-04-03T07:09:52.051Z,4.42
2023-04-03T07:10:52.092Z,4.52
2023-04-03T07:11:52.038Z,4.64
2023-04-03T07:12:53.327Z,4.73
2023-04-03T07:13:52.034Z,4.62
2023-04-03T07:14:52.026Z,4.57
2023-04-03T07:15:52.058Z,4.44
2023-04-03T07:16:52.045Z,4.50
2023-04-03T07:17:51.999Z,4.55
2023-04-03T07:18:51.942Z,4.58
2023-04-03T07:19:52.227Z,4.50
2023-04-03T07:20:51.953Z,4.50
2023-04-03T07:21:51.926Z,4.55
2023-04-03T07:22:52.099Z,4.65
2023-04-03T07:23:51.906Z,4.77
2023-04-03T07:24:51.902Z,4.94
2023-04-03T07:25:51.895Z,4.88
2023-04-03T07:26:52.228Z,4.99
2023-04-03T07:27:51.888Z,4.91
2023-04-03T07:28:51.919Z,4.86
2023-04-03T07:29:51.869Z,4.91
2023-04-03T07:30:51.877Z,5.02
2023-04-03T07:31:51.875Z,5.13
2023-04-03T07:32:51.897Z,5.22
2023-04-03T07:33:52.122Z,5.40
2023-04-03T07:34:51.858Z,5.50
2023-04-03T07:35:51.823Z,5.66
2023-04-03T07:36:51.775Z,5.73
2023-04-03T07:37:51.777Z,5.70
2023-04-03T07:38:51.764Z,5.68
2023-04-03T07:39:51.747Z,5.53
2023-04-03T07:40:52.155Z,5.49
2023-04-03T07:41:51.732Z,5.48
2023-04-03T07:42:51.738Z,5.48
2023-04-03T07:43:51.733Z,5.60
2023-04-03T07:44:51.723Z,5.63
2023-04-03T07:45:51.873Z,5.56
2023-04-03T07:46:51.727Z,5.73
2023-04-03T07:47:52.046Z,5.86
2023-04-03T07:48:51.690Z,5.98
2023-04-03T07:49:51.697Z,6.09
2023-04-03T07:50:51.680Z,6.03
2023-04-03T07:51:51.649Z,5.92
2023-04-03T07:52:51.668Z,6.00
2023-04-03T07:53:51.635Z,6.16
2023-04-03T07:54:51.889Z,6.22
2023-04-03T07:55:51.583Z,6.29
2023-04-03T07:56:51.619Z,6.41
2023-04-03T07:57:51.765Z,6.48
2023-04-03T07:58:51.625Z,6.41
2023-04-03T07:59:51.560Z,6.61
2023-04-03T08:00:51.593Z,6.56
2023-04-03T08:01:51.977Z,6.36
2023-04-03T08:02:51.757Z,6.29
2023-04-03T08:03:51.633Z,6.26
2023-04-03T08:04:51.730Z,6.30
2023-04-03T08:05:51.513Z,6.41
2023-04-03T08:06:51.488Z,6.61
2023-04-03T08:07:51.469Z,6.72
2023-04-03T08:08:51.477Z,6.89
2023-04-03T08:09:51.454Z,6.91
2023-04-03T08:10:51.513Z,6.86
2023-04-03T08:11:51.448Z,6.91
2023-04-03T08:12:51.460Z,6.98
2023-04-03T08:13:51.861Z,7.08
2023-04-03T08:14:51.444Z,7.07
2023-04-03T08:15:51.400Z,6.98
2023-04-03T08:16:51.488Z,6.95
2023-04-03T08:17:51.428Z,6.95
2023-04-03T08:18:51.391Z,6.98
2023-04-03T08:19:51.369Z,7.24
2023-04-03T08:20:51.669Z,7.59
2023-04-03T08:21:51.390Z,7.93
2023-04-03T08:22:51.388Z,8.10
2023-04-03T08:23:51.365Z,8.15
2023-04-03T08:24:58.633Z,8.30
2023-04-03T08:25:51.292Z,8.47
2023-04-03T08:26:51.300Z,8.33
2023-04-03T08:27:51.291Z,7.78
2023-04-03T08:28:51.300Z,7.81
2023-04-03T08:29:51.285Z,7.77
2023-04-03T08:30:51.332Z,7.66
2023-04-03T08:31:51.317Z,7.75
2023-04-03T08:32:51.580Z,7.78
2023-04-03T08:33:51.228Z,7.52
2023-04-03T08:34:51.488Z,7.49
2023-04-03T08:35:51.200Z,7.71
2023-04-03T08:36:51.220Z,7.97
2023-04-03T08:37:51.172Z,8.03
2023-04-03T08:38:51.157Z,8.35
2023-04-03T08:39:51.165Z,8.50
2023-04-03T08:40:51.229Z,8.54
2023-04-03T08:41:51.136Z,8.51
2023-04-03T08:42:51.144Z,8.62
2023-04-03T08:43:51.116Z,8.58
2023-04-03T08:44:51.461Z,8.51
2023-04-03T08:45:51.184Z,8.58
2023-04-03T08:46:51.943Z,8.78
2023-04-03T08:47:51.428Z,8.81
2023-04-03T08:48:51.080Z,8.99
2023-04-03T08:49:51.078Z,8.84
2023-04-03T08:50:53.034Z,8.76
2023-04-03T08:51:51.313Z,8.42
2023-04-03T08:52:51.056Z,8.37
2023-04-03T08:53:51.176Z,8.44
2023-04-03T08:54:50.990Z,8.51
2023-04-03T08:55:50.980Z,8.63
2023-04-03T08:56:51.003Z,8.14
2023-04-03T08:57:50.978Z,8.03
2023-04-03T08:58:51.269Z,7.78
2023-04-03T08:59:50.949Z,7.69
2023-04-03T09:00:50.943Z,7.79
2023-04-03T09:01:50.984Z,7.84
2023-04-03T09:02:50.976Z,7.94
2023-04-03T09:03:50.942Z,8.12
2023-04-03T09:04:50.924Z,8.14
2023-04-03T09:05:50.899Z,8.25
2023-04-03T09:06:50.892Z,8.45
2023-04-03T09:07:50.905Z,8.63
2023-04-03T09:08:50.872Z,8.91
2023-04-03T09:09:50.856Z,9.18
2023-04-03T09:10:50.867Z,8.99
2023-04-03T09:11:51.122Z,8.62
2023-04-03T09:12:50.807Z,8.72
2023-04-03T09:13:50.794Z,8.72
2023-04-03T09:14:50.777Z,8.71
2023-04-03T09:15:50.825Z,8.62
2023-04-03T09:16:50.836Z,8.86
2023-04-03T09:17:50.801Z,8.84
2023-04-03T09:18:50.766Z,8.93
2023-04-03T09:19:50.776Z,8.83
2023-04-03T09:20:50.728Z,8.73
2023-04-03T09:21:50.754Z,8.73
2023-04-03T09:22:52.969Z,8.71
2023-04-03T09:23:50.696Z,8.53
2023-04-03T09:24:51.030Z,8.53
2023-04-03T09:25:50.663Z,8.57
2023-04-03T09:26:50.716Z,8.68
2023-04-03T09:27:50.638Z,8.60
2023-04-03T09:28:51.242Z,8.47
2023-04-03T09:29:50.609Z,8.14
2023-04-03T09:30:50.661Z,8.10
2023-04-03T09:31:50.731Z,8.17
2023-04-03T09:32:50.647Z,8.20
2023-04-03T09:33:50.644Z,8.48
2023-04-03T09:34:50.614Z,8.79
2023-04-03T09:35:50.616Z,8.75
2023-04-03T09:36:50.836Z,8.93
2023-04-03T09:37:50.532Z,9.16
2023-04-03T09:38:50.545Z,9.24
2023-04-03T09:39:50.518Z,9.42
2023-04-03T09:40:50.564Z,9.53
2023-04-03T09:41:50.492Z,9.50
2023-04-03T09:42:55.462Z,9.50
2023-04-03T09:43:50.471Z,9.31
2023-04-03T09:44:50.458Z,9.46
2023-04-03T09:45:50.444Z,9.86
2023-04-03T09:46:50.568Z,10.14
2023-04-03T09:47:50.450Z,10.37
2023-04-03T09:48:55.035Z,10.32
2023-04-03T09:49:50.414Z,10.19
2023-04-03T09:50:50.380Z,10.26
2023-04-03T09:51:50.537Z,10.37
2023-04-03T09:52:50.421Z,10.37
2023-04-03T09:53:50.414Z,10.07
2023-04-03T09:54:50.385Z,9.56
2023-04-03T09:55:50.648Z,9.30
2023-04-03T09:56:50.440Z,9.53
2023-04-03T09:57:52.253Z,9.86
2023-04-03T09:58:51.277Z,10.04
2023-04-03T09:59:50.339Z,10.32
2023-04-03T10:00:50.336Z,10.68
2023-04-03T10:01:50.322Z,10.71
2023-04-03T10:02:50.702Z,10.73
2023-04-03T10:03:50.260Z,11.09
2023-04-03T10:05:06.202Z,10.94
2023-04-03T10:05:50.230Z,10.80
2023-04-03T10:06:50.204Z,10.68
2023-04-03T10:08:01.603Z,10.19
2023-04-03T10:08:50.234Z,9.73
2023-04-03T10:09:50.473Z,9.76
2023-04-03T10:10:50.220Z,9.79
2023-04-03T10:11:50.181Z,10.04
2023-04-03T10:12:50.149Z,10.00
2023-04-03T10:13:51.212Z,10.19
2023-04-03T10:14:50.132Z,10.32
2023-04-03T10:15:50.205Z,10.42
2023-04-03T10:16:50.511Z,10.43
2023-04-03T10:17:50.130Z,10.07
2023-04-03T10:18:50.083Z,10.04
2023-04-03T10:19:50.078Z,10.12
2023-04-03T10:20:50.071Z,9.68
2023-04-03T10:21:50.052Z,9.75
2023-04-03T10:22:50.091Z,9.93
2023-04-03T10:23:50.318Z,9.97
2023-04-03T10:24:50.049Z,9.97
2023-04-03T10:25:50.052Z,9.93
2023-04-03T10:26:50.008Z,10.10
2023-04-03T10:27:49.987Z,10.19
2023-04-03T10:28:50.077Z,10.30
2023-04-03T10:29:50.020Z,10.03
2023-04-03T10:30:50.319Z,10.01
2023-04-03T10:31:49.956Z,9.99
2023-04-03T10:32:50.083Z,10.06
2023-04-03T10:33:49.922Z,10.44
2023-04-03T10:34:58.552Z,10.58
2023-04-03T10:35:49.989Z,10.65
2023-04-03T10:36:49.922Z,10.83
2023-04-03T10:37:49.902Z,10.95
2023-04-03T10:38:49.888Z,11.36
2023-04-03T10:39:49.876Z,11.34
2023-04-03T10:40:49.907Z,11.44
2023-04-03T10:41:50.660Z,11.44
2023-04-03T10:42:49.864Z,11.57
2023-04-03T10:43:49.809Z,11.50
2023-04-03T10:44:49.815Z,11.14
2023-04-03T10:45:49.857Z,10.59
2023-04-03T10:46:49.823Z,9.97
2023-04-03T10:47:49.896Z,9.56
2023-04-03T10:48:49.798Z,9.73
2023-04-03T10:49:57.106Z,10.06
2023-04-03T10:50:49.759Z,10.09
2023-04-03T10:51:49.766Z,10.04
2023-04-03T10:52:49.794Z,10.15
2023-04-03T10:53:50.016Z,10.15
2023-04-03T10:54:49.699Z,10.39
2023-04-03T10:55:49.731Z,10.84
2023-04-03T10:56:55.303Z,11.21
2023-04-03T10:57:49.796Z,11.32
2023-04-03T10:58:49.714Z,11.16
2023-04-03T10:59:49.661Z,11.32
2023-04-03T11:00:49.954Z,11.14
2023-04-03T11:01:49.653Z,11.16
2023-04-03T11:02:49.810Z,11.53
2023-04-03T11:03:49.737Z,11.35
2023-04-03T11:04:49.648Z,11.14
2023-04-03T11:05:49.576Z,11.14
2023-04-03T11:06:49.584Z,10.78
2023-04-03T11:07:49.921Z,10.44
2023-04-03T11:08:49.577Z,10.58
2023-04-03T11:09:49.575Z,10.66
2023-04-03T11:10:49.617Z,10.59
2023-04-03T11:11:49.556Z,10.77
2023-04-03T11:12:49.536Z,10.92
2023-04-03T11:13:49.505Z,10.63
2023-04-03T11:14:49.500Z,10.21
2023-04-03T11:15:49.506Z,10.51
2023-04-03T11:16:54.432Z,10.92
2023-04-03T11:17:49.517Z,10.95
2023-04-03T11:18:49.489Z,11.01
2023-04-03T11:19:49.469Z,10.99
2023-04-03T11:20:49.721Z,10.88
2023-04-03T11:21:49.462Z,10.86
2023-04-03T11:22:49.530Z,10.89
2023-04-03T11:23:50.327Z,10.81
2023-04-03T11:24:49.389Z,10.60
2023-04-03T11:25:49.387Z,10.62
2023-04-03T11:26:49.344Z,10.60
2023-04-03T11:27:49.412Z,10.94
2023-04-03T11:28:49.413Z,11.28
2023-04-03T11:29:49.370Z,11.65
2023-04-03T11:30:49.347Z,11.99
2023-04-03T11:31:49.314Z,11.82
2023-04-03T11:32:49.359Z,11.56
2023-04-03T11:33:49.658Z,11.36
2023-04-03T11:34:49.332Z,11.75
2023-04-03T11:35:49.293Z,11.83
2023-04-03T11:36:49.329Z,11.71
2023-04-03T11:37:49.374Z,11.62
2023-04-03T11:38:49.235Z,11.64
2023-04-03T11:39:49.216Z,11.80
2023-04-03T11:40:49.539Z,12.12
2023-04-03T11:41:50.531Z,11.82
2023-04-03T11:42:49.276Z,11.93
2023-04-03T11:43:49.215Z,12.05
2023-04-03T11:44:49.212Z,12.27
2023-04-03T11:45:49.223Z,12.48
2023-04-03T11:46:49.219Z,12.82
2023-04-03T11:47:49.642Z,12.81
2023-04-03T11:48:49.135Z,13.15
2023-04-03T11:49:49.130Z,13.56
2023-04-03T11:50:49.119Z,13.61
2023-04-03T11:51:49.089Z,13.65
2023-04-03T11:52:49.170Z,12.41
2023-04-03T11:53:49.075Z,11.06
2023-04-03T11:54:49.403Z,10.86
2023-04-03T11:55:49.095Z,10.92
2023-04-03T11:56:49.053Z,11.41
2023-04-03T11:57:49.042Z,11.53
2023-04-03T11:58:49.081Z,11.74
2023-04-03T11:59:49.007Z,10.89
2023-04-03T12:00:49.008Z,10.52
2023-04-03T12:01:49.206Z,10.46
2023-04-03T12:02:57.156Z,10.06
2023-04-03T12:03:49.189Z,9.53
2023-04-03T12:04:49.039Z,9.39
2023-04-03T12:05:48.942Z,9.40
2023-04-03T12:06:48.960Z,9.06
2023-04-03T12:07:49.030Z,8.96
2023-04-03T12:08:49.028Z,9.23
2023-04-03T12:09:48.901Z,9.53
2023-04-03T12:10:48.948Z,10.62
2023-04-03T12:11:48.889Z,11.01
2023-04-03T12:12:48.875Z,11.72
2023-04-03T12:13:49.179Z,12.13
2023-04-03T12:14:48.844Z,11.64
2023-04-03T12:15:48.849Z,10.76
2023-04-03T12:16:48.865Z,10.52
2023-04-03T12:17:48.897Z,11.17
2023-04-03T12:18:48.882Z,11.80
2023-04-03T12:19:48.830Z,11.90
2023-04-03T12:20:48.780Z,11.61
2023-04-03T12:21:48.777Z,12.16
2023-04-03T12:22:48.820Z,11.03
2023-04-03T12:23:48.752Z,10.22
2023-04-03T12:24:48.728Z,9.67
2023-04-03T12:25:48.723Z,10.19
2023-04-03T12:26:49.287Z,10.77
2023-04-03T12:27:48.794Z,11.16
2023-04-03T12:28:48.771Z,11.77
2023-04-03T12:29:48.693Z,12.06
2023-04-03T12:30:48.813Z,12.02
2023-04-03T12:31:48.994Z,12.30
2023-04-03T12:32:49.470Z,12.66
2023-04-03T12:33:49.604Z,13.06
2023-04-03T12:34:48.723Z,13.32
2023-04-03T12:35:48.680Z,13.65
2023-04-03T12:36:48.640Z,13.56
2023-04-03T12:37:48.611Z,13.40
2023-04-03T12:38:48.863Z,13.58
2023-04-03T12:39:49.354Z,13.74
2023-04-03T12:40:49.537Z,13.43
2023-04-03T12:41:49.031Z,13.15
2023-04-03T12:42:49.297Z,13.21
2023-04-03T12:43:49.098Z,13.15
2023-04-03T12:44:49.015Z,12.41
2023-04-03T12:45:48.850Z,11.32
2023-04-03T12:46:48.553Z,10.98
2023-04-03T12:47:48.529Z,10.47
2023-04-03T12:48:48.468Z,10.06
2023-04-03T12:49:49.812Z,10.58
2023-04-03T12:50:48.489Z,11.07
2023-04-03T12:51:48.534Z,11.71
2023-04-03T12:52:48.817Z,12.11
2023-04-03T12:53:48.480Z,12.31
2023-04-03T12:54:48.458Z,12.27
2023-04-03T12:55:48.395Z,11.71
2023-04-03T12:56:48.423Z,11.70
2023-04-03T12:57:48.398Z,11.56
2023-04-03T12:58:48.428Z,11.31
2023-04-03T12:59:48.415Z,11.11
2023-04-03T13:00:48.355Z,11.14
2023-04-03T13:01:48.398Z,11.09
2023-04-03T13:02:48.388Z,11.90
2023-04-03T13:03:48.461Z,12.46
2023-04-03T13:04:48.363Z,12.62
2023-04-03T13:05:48.316Z,12.16
2023-04-03T13:06:48.302Z,11.14
2023-04-03T13:07:48.297Z,10.74
2023-04-03T13:08:48.289Z,10.39
2023-04-03T13:09:48.249Z,10.66
2023-04-03T13:10:48.342Z,11.16
2023-04-03T13:11:48.619Z,11.46
2023-04-03T13:12:48.263Z,11.53